sensor_id;sensor_type;location;lat;lon;timestamp;pressure;altitude;pressure_sealevel;temperature;humidity
65329;BME280;51941;52.210;5.158;2022-07-29T00:01:56;101752.38;;;16.25;61.76
65329;BME280;51941;52.210;5.158;2022-07-29T00:04:23;101713.75;;;16.16;61.93
65329;BME280;51941;52.210;5.158;2022-07-29T00:06:49;101599.13;;;15.37;61.52
65329;BME280;51941;52.210;5.158;2022-07-29T00:09:16;101729.69;;;16.27;61.45
65329;BME280;51941;52.210;5.158;2022-07-29T00:11:43;101443.38;;;14.50;61.51
65329;BME280;51941;52.210;5.158;2022-07-29T00:14:11;101731.81;;;16.25;61.76
65329;BME280;51941;52.210;5.158;2022-07-29T00:16:38;101681.22;;;15.97;61.81
65329;BME280;51941;52.210;5.158;2022-07-29T00:19:05;101572.41;;;15.15;61.85
65329;BME280;51941;52.210;5.158;2022-07-29T00:21:32;101216.41;;;13.14;61.64
65329;BME280;51941;52.210;5.158;2022-07-29T00:24:00;101261.50;;;13.37;61.81
65329;BME280;51941;52.210;5.158;2022-07-29T00:26:27;101306.31;;;13.57;61.65
65329;BME280;51941;52.210;5.158;2022-07-29T00:28:57;101551.16;;;15.21;61.73
65329;BME280;51941;52.210;5.158;2022-07-29T00:31:26;101328.56;;;13.67;62.35
65329;BME280;51941;52.210;5.158;2022-07-29T00:33:54;101269.16;;;13.34;62.06
65329;BME280;51941;52.210;5.158;2022-07-29T00:36:21;101468.47;;;14.65;62.54
65329;BME280;51941;52.210;5.158;2022-07-29T00:38:47;101500.09;;;14.78;62.48
65329;BME280;51941;52.210;5.158;2022-07-29T00:41:14;101522.88;;;15.03;62.38
65329;BME280;51941;52.210;5.158;2022-07-29T00:43:41;101567.66;;;15.17;62.81
65329;BME280;51941;52.210;5.158;2022-07-29T00:46:08;101545.19;;;15.13;62.98
65329;BME280;51941;52.210;5.158;2022-07-29T00:48:37;101416.94;;;14.15;63.52
65329;BME280;51941;52.210;5.158;2022-07-29T00:51:05;101427.38;;;14.33;63.07
65329;BME280;51941;52.210;5.158;2022-07-29T00:53:33;101504.22;;;14.86;63.20
65329;BME280;51941;52.210;5.158;2022-07-29T00:56:00;101679.75;;;15.89;63.34
65329;BME280;51941;52.210;5.158;2022-07-29T00:58:27;101641.19;;;15.64;63.50
65329;BME280;51941;52.210;5.158;2022-07-29T01:00:54;101370.22;;;13.90;63.33
65329;BME280;51941;52.210;5.158;2022-07-29T01:03:21;101418.75;;;14.26;63.47
65329;BME280;51941;52.210;5.158;2022-07-29T01:05:49;101627.53;;;15.43;63.45
65329;BME280;51941;52.210;5.158;2022-07-29T01:08:17;101646.09;;;15.55;63.75
65329;BME280;51941;52.210;5.158;2022-07-29T01:10:45;101505.44;;;14.50;63.32
65329;BME280;51941;52.210;5.158;2022-07-29T01:13:14;101680.00;;;15.71;63.47
65329;BME280;51941;52.210;5.158;2022-07-29T01:15:44;101571.84;;;15.13;63.70
65329;BME280;51941;52.210;5.158;2022-07-29T01:18:16;101413.25;;;14.16;63.40
65329;BME280;51941;52.210;5.158;2022-07-29T01:20:58;101474.66;;;14.54;63.70
65329;BME280;51941;52.210;5.158;2022-07-29T01:23:56;101532.84;;;14.91;63.50
65329;BME280;51941;52.210;5.158;2022-07-29T01:26:41;101637.00;;;15.51;63.47
65329;BME280;51941;52.210;5.158;2022-07-29T01:29:29;101226.41;;;12.95;63.51
65329;BME280;51941;52.210;5.158;2022-07-29T01:32:01;101481.59;;;14.55;63.72
65329;BME280;51941;52.210;5.158;2022-07-29T01:34:35;101227.47;;;12.94;63.47
65329;BME280;51941;52.210;5.158;2022-07-29T01:37:11;101200.84;;;12.77;63.65
65329;BME280;51941;52.210;5.158;2022-07-29T01:39:43;101681.91;;;15.71;63.69
65329;BME280;51941;52.210;5.158;2022-07-29T01:42:16;101478.81;;;14.50;63.68
65329;BME280;51941;52.210;5.158;2022-07-29T01:44:55;101266.56;;;13.10;63.85
65329;BME280;51941;52.210;5.158;2022-07-29T01:47:29;101372.84;;;13.74;63.54
65329;BME280;51941;52.210;5.158;2022-07-29T01:50:01;101243.41;;;12.94;63.81
65329;BME280;51941;52.210;5.158;2022-07-29T01:52:36;101495.03;;;14.49;64.39
65329;BME280;51941;52.210;5.158;2022-07-29T01:55:07;101529.75;;;14.65;64.05
65329;BME280;51941;52.210;5.158;2022-07-29T01:57:37;101314.59;;;13.32;63.83
65329;BME280;51941;52.210;5.158;2022-07-29T02:00:08;101667.38;;;15.50;64.37
65329;BME280;51941;52.210;5.158;2022-07-29T02:02:40;101548.66;;;14.80;63.71
65329;BME280;51941;52.210;5.158;2022-07-29T02:05:10;101506.22;;;14.34;64.01
65329;BME280;51941;52.210;5.158;2022-07-29T02:07:40;101472.47;;;14.23;64.37
65329;BME280;51941;52.210;5.158;2022-07-29T02:10:08;101459.53;;;14.15;63.99
65329;BME280;51941;52.210;5.158;2022-07-29T02:12:37;101347.50;;;13.43;64.35
65329;BME280;51941;52.210;5.158;2022-07-29T02:15:07;101280.69;;;12.99;64.40
65329;BME280;51941;52.210;5.158;2022-07-29T02:17:39;101664.56;;;15.40;64.53
65329;BME280;51941;52.210;5.158;2022-07-29T02:20:08;101673.44;;;15.45;64.29
65329;BME280;51941;52.210;5.158;2022-07-29T02:22:38;101655.16;;;15.37;64.60
65329;BME280;51941;52.210;5.158;2022-07-29T02:25:05;101668.66;;;15.47;64.32
65329;BME280;51941;52.210;5.158;2022-07-29T02:27:38;101223.28;;;12.58;64.29
65329;BME280;51941;52.210;5.158;2022-07-29T02:30:12;101665.28;;;15.52;64.17
65329;BME280;51941;52.210;5.158;2022-07-29T02:32:44;101214.41;;;12.52;64.03
65329;BME280;51941;52.210;5.158;2022-07-29T02:35:22;101670.34;;;15.53;64.23
65329;BME280;51941;52.210;5.158;2022-07-29T02:37:52;101250.34;;;12.95;64.26
65329;BME280;51941;52.210;5.158;2022-07-29T02:40:37;101662.13;;;15.55;63.98
65329;BME280;51941;52.210;5.158;2022-07-29T02:43:06;101563.19;;;14.90;63.79
65329;BME280;51941;52.210;5.158;2022-07-29T02:45:36;101665.34;;;15.57;63.83
65329;BME280;51941;52.210;5.158;2022-07-29T02:48:09;101329.16;;;13.29;63.83
65329;BME280;51941;52.210;5.158;2022-07-29T02:50:40;101245.63;;;12.85;63.76
65329;BME280;51941;52.210;5.158;2022-07-29T02:53:15;101221.75;;;12.74;63.95
65329;BME280;51941;52.210;5.158;2022-07-29T02:55:51;101437.44;;;14.14;63.91
65329;BME280;51941;52.210;5.158;2022-07-29T02:58:25;101485.19;;;14.49;63.89
65329;BME280;51941;52.210;5.158;2022-07-29T03:00:57;101228.91;;;12.73;63.60
65329;BME280;51941;52.210;5.158;2022-07-29T03:03:28;101428.59;;;13.97;63.70
65329;BME280;51941;52.210;5.158;2022-07-29T03:05:56;101228.34;;;12.71;63.65
65329;BME280;51941;52.210;5.158;2022-07-29T03:08:24;101452.16;;;14.33;63.82
65329;BME280;51941;52.210;5.158;2022-07-29T03:10:53;101533.22;;;14.83;63.79
65329;BME280;51941;52.210;5.158;2022-07-29T03:13:21;101473.72;;;14.49;63.82
65329;BME280;51941;52.210;5.158;2022-07-29T03:15:49;101649.81;;;15.54;63.80
65329;BME280;51941;52.210;5.158;2022-07-29T03:18:18;101536.72;;;14.83;63.75
65329;BME280;51941;52.210;5.158;2022-07-29T03:20:45;101472.44;;;14.51;63.73
65329;BME280;51941;52.210;5.158;2022-07-29T03:23:18;101506.22;;;14.62;63.80
65329;BME280;51941;52.210;5.158;2022-07-29T03:25:55;101213.03;;;12.90;63.44
65329;BME280;51941;52.210;5.158;2022-07-29T03:28:22;101639.72;;;15.56;63.79
65329;BME280;51941;52.210;5.158;2022-07-29T03:30:50;101541.94;;;14.95;63.83
65329;BME280;51941;52.210;5.158;2022-07-29T03:33:19;101628.81;;;15.58;63.46
65329;BME280;51941;52.210;5.158;2022-07-29T03:35:45;101635.19;;;15.56;63.71
65329;BME280;51941;52.210;5.158;2022-07-29T03:38:13;101479.59;;;14.62;63.33
65329;BME280;51941;52.210;5.158;2022-07-29T03:40:44;101661.06;;;15.56;63.77
65329;BME280;51941;52.210;5.158;2022-07-29T03:43:15;101203.81;;;12.81;63.28
65329;BME280;51941;52.210;5.158;2022-07-29T03:45:45;101597.78;;;15.35;63.45
65329;BME280;51941;52.210;5.158;2022-07-29T03:48:16;101442.09;;;14.35;63.60
65329;BME280;51941;52.210;5.158;2022-07-29T03:50:46;101402.19;;;14.07;63.34
65329;BME280;51941;52.210;5.158;2022-07-29T03:53:13;101626.88;;;15.53;63.24
65329;BME280;51941;52.210;5.158;2022-07-29T03:55:41;101620.75;;;15.52;63.39
65329;BME280;51941;52.210;5.158;2022-07-29T03:58:10;101635.59;;;15.48;63.43
65329;BME280;51941;52.210;5.158;2022-07-29T04:00:37;101622.09;;;15.38;63.76
65329;BME280;51941;52.210;5.158;2022-07-29T04:03:05;101606.03;;;15.33;63.07
65329;BME280;51941;52.210;5.158;2022-07-29T04:05:32;101185.03;;;12.71;63.38
65329;BME280;51941;52.210;5.158;2022-07-29T04:08:00;101515.22;;;14.73;63.27
65329;BME280;51941;52.210;5.158;2022-07-29T04:10:27;101263.75;;;13.17;63.44
65329;BME280;51941;52.210;5.158;2022-07-29T04:12:54;101411.63;;;14.15;63.27
65329;BME280;51941;52.210;5.158;2022-07-29T04:15:21;101542.03;;;14.83;63.28
65329;BME280;51941;52.210;5.158;2022-07-29T04:17:48;101504.56;;;14.73;63.17
65329;BME280;51941;52.210;5.158;2022-07-29T04:20:15;101278.41;;;13.31;63.34
65329;BME280;51941;52.210;5.158;2022-07-29T04:22:42;101240.44;;;13.07;62.89
65329;BME280;51941;52.210;5.158;2022-07-29T04:25:11;101181.38;;;12.60;63.13
65329;BME280;51941;52.210;5.158;2022-07-29T04:27:39;101199.22;;;12.76;63.30
65329;BME280;51941;52.210;5.158;2022-07-29T04:30:25;101394.78;;;14.09;63.25
65329;BME280;51941;52.210;5.158;2022-07-29T04:32:52;101486.19;;;14.60;63.27
65329;BME280;51941;52.210;5.158;2022-07-29T04:35:19;101391.22;;;14.03;63.50
65329;BME280;51941;52.210;5.158;2022-07-29T04:37:47;101240.84;;;12.99;63.38
65329;BME280;51941;52.210;5.158;2022-07-29T04:40:15;101619.94;;;15.52;63.24
65329;BME280;51941;52.210;5.158;2022-07-29T04:42:42;101498.66;;;14.71;63.09
65329;BME280;51941;52.210;5.158;2022-07-29T04:45:09;101624.75;;;15.55;63.31
65329;BME280;51941;52.210;5.158;2022-07-29T04:47:36;101298.59;;;13.44;63.00
65329;BME280;51941;52.210;5.158;2022-07-29T04:50:07;101432.13;;;14.31;62.91
65329;BME280;51941;52.210;5.158;2022-07-29T04:52:40;101619.53;;;15.43;63.02
65329;BME280;51941;52.210;5.158;2022-07-29T04:55:08;101495.50;;;14.74;62.90
65329;BME280;51941;52.210;5.158;2022-07-29T04:57:36;101335.94;;;13.77;62.63
65329;BME280;51941;52.210;5.158;2022-07-29T05:00:04;101629.47;;;15.65;62.98
65329;BME280;51941;52.210;5.158;2022-07-29T05:02:31;101634.81;;;15.65;63.00
65329;BME280;51941;52.210;5.158;2022-07-29T05:04:57;101527.63;;;15.01;62.97
65329;BME280;51941;52.210;5.158;2022-07-29T05:07:24;101408.44;;;14.29;62.79
65329;BME280;51941;52.210;5.158;2022-07-29T05:09:51;101204.06;;;13.08;62.62
65329;BME280;51941;52.210;5.158;2022-07-29T05:12:19;101448.19;;;14.64;62.78
65329;BME280;51941;52.210;5.158;2022-07-29T05:14:47;101521.59;;;15.05;62.84
65329;BME280;51941;52.210;5.158;2022-07-29T05:17:14;101509.13;;;15.11;62.72
65329;BME280;51941;52.210;5.158;2022-07-29T05:19:41;101409.06;;;14.53;62.56
65329;BME280;51941;52.210;5.158;2022-07-29T05:22:08;101357.56;;;14.14;62.64
65329;BME280;51941;52.210;5.158;2022-07-29T05:24:34;101390.03;;;14.44;62.31
65329;BME280;51941;52.210;5.158;2022-07-29T05:27:01;101642.50;;;16.00;62.30
65329;BME280;51941;52.210;5.158;2022-07-29T05:29:28;101629.47;;;16.03;62.51
65329;BME280;51941;52.210;5.158;2022-07-29T05:31:57;101538.13;;;15.41;62.48
65329;BME280;51941;52.210;5.158;2022-07-29T05:34:24;101209.72;;;13.40;62.03
65329;BME280;51941;52.210;5.158;2022-07-29T05:36:52;101178.63;;;13.12;62.03
65329;BME280;51941;52.210;5.158;2022-07-29T05:39:19;101534.41;;;15.42;62.11
65329;BME280;51941;52.210;5.158;2022-07-29T05:41:46;101209.50;;;13.41;62.16
65329;BME280;51941;52.210;5.158;2022-07-29T05:44:15;101271.09;;;13.83;61.99
65329;BME280;51941;52.210;5.158;2022-07-29T05:46:42;101227.78;;;13.54;61.98
65329;BME280;51941;52.210;5.158;2022-07-29T05:49:11;101638.72;;;16.17;61.94
65329;BME280;51941;52.210;5.158;2022-07-29T05:51:38;101509.75;;;15.35;61.60
65329;BME280;51941;52.210;5.158;2022-07-29T05:54:05;101252.00;;;13.86;61.38
65329;BME280;51941;52.210;5.158;2022-07-29T05:56:32;101359.28;;;14.70;61.28
65329;BME280;51941;52.210;5.158;2022-07-29T05:58:59;101278.59;;;14.20;60.94
65329;BME280;51941;52.210;5.158;2022-07-29T06:01:26;101509.03;;;15.78;60.67
65329;BME280;51941;52.210;5.158;2022-07-29T06:03:53;101297.09;;;14.48;60.40
65329;BME280;51941;52.210;5.158;2022-07-29T06:06:22;101193.94;;;13.83;60.13
65329;BME280;51941;52.210;5.158;2022-07-29T06:08:50;101651.72;;;16.74;60.32
65329;BME280;51941;52.210;5.158;2022-07-29T06:11:17;101386.03;;;14.97;60.40
65329;BME280;51941;52.210;5.158;2022-07-29T06:13:44;101542.44;;;16.29;60.19
65329;BME280;51941;52.210;5.158;2022-07-29T06:16:11;101556.44;;;16.63;59.98
65329;BME280;51941;52.210;5.158;2022-07-29T06:18:39;101444.06;;;16.53;58.68
65329;BME280;51941;52.210;5.158;2022-07-29T06:21:09;101497.16;;;17.50;57.05
65329;BME280;51941;52.210;5.158;2022-07-29T06:23:38;101243.88;;;16.46;55.12
65329;BME280;51941;52.210;5.158;2022-07-29T06:26:05;101243.56;;;16.90;54.69
65329;BME280;51941;52.210;5.158;2022-07-29T06:28:34;101411.13;;;18.14;52.72
65329;BME280;51941;52.210;5.158;2022-07-29T06:31:01;101391.59;;;18.49;52.76
65329;BME280;51941;52.210;5.158;2022-07-29T06:33:30;101258.16;;;17.85;52.80
65329;BME280;51941;52.210;5.158;2022-07-29T06:36:00;101669.22;;;21.07;51.79
65329;BME280;51941;52.210;5.158;2022-07-29T06:38:30;101309.16;;;19.49;50.36
65329;BME280;51941;52.210;5.158;2022-07-29T06:40:59;101288.78;;;19.82;47.81
65329;BME280;51941;52.210;5.158;2022-07-29T06:51:26;101358.16;;;19.75;48.25
65329;BME280;51941;52.210;5.158;2022-07-29T06:57:12;101476.03;;;20.31;48.04
65329;BME280;51941;52.210;5.158;2022-07-29T07:00:19;101301.91;;;18.90;48.60
65329;BME280;51941;52.210;5.158;2022-07-29T07:03:17;101314.88;;;18.63;48.96
65329;BME280;51941;52.210;5.158;2022-07-29T07:05:49;101338.47;;;18.46;49.30
65329;BME280;51941;52.210;5.158;2022-07-29T07:08:29;101702.28;;;20.58;49.89
65329;BME280;51941;52.210;5.158;2022-07-29T07:14:07;101336.91;;;17.84;50.48
65329;BME280;51941;52.210;5.158;2022-07-29T07:16:34;101321.91;;;18.03;50.32
65329;BME280;51941;52.210;5.158;2022-07-29T07:19:02;101703.63;;;20.56;50.48
65329;BME280;51941;52.210;5.158;2022-07-29T07:21:29;101383.72;;;18.88;50.27
65329;BME280;51941;52.210;5.158;2022-07-29T07:23:57;101616.91;;;20.79;49.43
65329;BME280;51941;52.210;5.158;2022-07-29T07:26:25;101546.66;;;20.42;49.29
65329;BME280;51941;52.210;5.158;2022-07-29T07:28:53;101280.84;;;18.59;49.60
65329;BME280;51941;52.210;5.158;2022-07-29T07:31:45;101689.06;;;20.72;50.09
65329;BME280;51941;52.210;5.158;2022-07-29T07:34:12;101328.06;;;18.09;50.79
65329;BME280;51941;52.210;5.158;2022-07-29T07:36:39;101314.69;;;17.94;51.07
65329;BME280;51941;52.210;5.158;2022-07-29T07:39:07;101697.56;;;20.30;51.20
65329;BME280;51941;52.210;5.158;2022-07-29T07:41:34;101682.50;;;20.34;51.12
65329;BME280;51941;52.210;5.158;2022-07-29T07:44:01;101562.53;;;19.79;50.99
65329;BME280;51941;52.210;5.158;2022-07-29T07:46:28;101673.13;;;20.81;50.64
65329;BME280;51941;52.210;5.158;2022-07-29T07:49:04;101312.53;;;18.51;50.30
65329;BME280;51941;52.210;5.158;2022-07-29T07:54:54;101674.19;;;21.58;49.49
65329;BME280;51941;52.210;5.158;2022-07-29T08:13:55;101367.78;;;20.49;46.81
65329;BME280;51941;52.210;5.158;2022-07-29T08:16:22;101643.59;;;22.20;46.90
65329;BME280;51941;52.210;5.158;2022-07-29T08:18:51;101307.09;;;20.09;46.80
65329;BME280;51941;52.210;5.158;2022-07-29T08:21:24;101538.84;;;21.42;47.29
65329;BME280;51941;52.210;5.158;2022-07-29T08:23:51;101553.28;;;21.51;47.00
65329;BME280;51941;52.210;5.158;2022-07-29T08:26:40;101532.75;;;21.31;46.72
65329;BME280;51941;52.210;5.158;2022-07-29T08:29:09;101336.09;;;20.17;46.79
65329;BME280;51941;52.210;5.158;2022-07-29T08:31:44;101324.25;;;20.18;46.70
65329;BME280;51941;52.210;5.158;2022-07-29T08:34:16;101289.59;;;20.12;46.26
65329;BME280;51941;52.210;5.158;2022-07-29T08:36:44;101336.19;;;20.60;45.92
65329;BME280;51941;52.210;5.158;2022-07-29T08:39:15;101287.63;;;20.51;45.86
65329;BME280;51941;52.210;5.158;2022-07-29T08:41:50;101313.03;;;20.88;44.97
65329;BME280;51941;52.210;5.158;2022-07-29T08:48:10;101475.91;;;22.18;44.10
65329;BME280;51941;52.210;5.158;2022-07-29T08:50:50;101324.00;;;20.91;44.42
65329;BME280;51941;52.210;5.158;2022-07-29T08:53:42;101332.88;;;20.92;44.86
65329;BME280;51941;52.210;5.158;2022-07-29T08:56:47;101332.81;;;20.97;45.00
65329;BME280;51941;52.210;5.158;2022-07-29T08:59:40;101543.94;;;22.66;44.39
65329;BME280;51941;52.210;5.158;2022-07-29T09:02:46;101322.28;;;21.24;43.13
65329;BME280;51941;52.210;5.158;2022-07-29T09:13:59;101340.75;;;21.31;43.98
65329;BME280;51941;52.210;5.158;2022-07-29T09:19:45;101475.38;;;21.97;44.28
65329;BME280;51941;52.210;5.158;2022-07-29T09:22:31;101431.75;;;21.76;44.11
65329;BME280;51941;52.210;5.158;2022-07-29T09:24:59;101495.06;;;22.35;44.04
65329;BME280;51941;52.210;5.158;2022-07-29T09:27:31;101323.00;;;21.30;43.29
65329;BME280;51941;52.210;5.158;2022-07-29T09:30:07;101324.91;;;21.29;43.13
65329;BME280;51941;52.210;5.158;2022-07-29T09:32:55;101296.41;;;21.04;43.13
65329;BME280;51941;52.210;5.158;2022-07-29T09:35:33;101330.97;;;20.92;43.08
65329;BME280;51941;52.210;5.158;2022-07-29T09:38:10;101315.13;;;20.67;43.30
65329;BME280;51941;52.210;5.158;2022-07-29T09:40:39;101334.69;;;20.72;43.74
65329;BME280;51941;52.210;5.158;2022-07-29T09:43:10;101461.78;;;21.65;43.32
65329;BME280;51941;52.210;5.158;2022-07-29T09:45:45;101688.31;;;22.87;43.49
65329;BME280;51941;52.210;5.158;2022-07-29T09:48:36;101287.97;;;20.45;43.86
65329;BME280;51941;52.210;5.158;2022-07-29T09:51:19;101309.81;;;20.62;43.40
65329;BME280;51941;52.210;5.158;2022-07-29T09:53:58;101300.09;;;20.42;43.64
65329;BME280;51941;52.210;5.158;2022-07-29T09:56:40;101283.22;;;20.02;44.64
65329;BME280;51941;52.210;5.158;2022-07-29T09:59:21;101332.69;;;20.35;44.74
65329;BME280;51941;52.210;5.158;2022-07-29T10:02:01;101591.31;;;22.16;44.30
65329;BME280;51941;52.210;5.158;2022-07-29T10:04:38;101479.91;;;21.35;44.05
65329;BME280;51941;52.210;5.158;2022-07-29T10:07:10;101307.72;;;20.30;44.43
65329;BME280;51941;52.210;5.158;2022-07-29T10:09:49;101476.41;;;21.59;43.94
65329;BME280;51941;52.210;5.158;2022-07-29T10:12:21;101443.28;;;21.58;44.08
65329;BME280;51941;52.210;5.158;2022-07-29T10:14:51;101337.31;;;21.06;45.16
65329;BME280;51941;52.210;5.158;2022-07-29T10:17:22;101270.25;;;20.86;44.78
65329;BME280;51941;52.210;5.158;2022-07-29T10:19:54;101560.34;;;22.88;44.65
65329;BME280;51941;52.210;5.158;2022-07-29T10:22:23;101318.34;;;21.35;45.20
65329;BME280;51941;52.210;5.158;2022-07-29T10:25:00;101671.28;;;23.57;45.69
65329;BME280;51941;52.210;5.158;2022-07-29T10:27:39;101290.47;;;21.07;45.40
65329;BME280;51941;52.210;5.158;2022-07-29T10:31:11;101308.88;;;21.19;46.69
65329;BME280;51941;52.210;5.158;2022-07-29T10:34:10;101352.41;;;21.45;46.77
65329;BME280;51941;52.210;5.158;2022-07-29T10:36:51;101306.03;;;21.29;46.30
65329;BME280;51941;52.210;5.158;2022-07-29T10:39:35;101346.97;;;21.50;44.04
65329;BME280;51941;52.210;5.158;2022-07-29T10:42:18;101425.47;;;22.18;43.32
65329;BME280;51941;52.210;5.158;2022-07-29T10:44:50;101324.81;;;21.53;43.15
65329;BME280;51941;52.210;5.158;2022-07-29T10:47:43;101320.50;;;21.52;44.37
65329;BME280;51941;52.210;5.158;2022-07-29T11:50:57;101300.97;;;20.61;45.55
65329;BME280;51941;52.210;5.158;2022-07-29T11:53:55;101290.19;;;20.61;45.23
65329;BME280;51941;52.210;5.158;2022-07-29T11:56:49;101256.19;;;20.47;45.63
65329;BME280;51941;52.210;5.158;2022-07-29T11:59:21;101273.81;;;20.58;45.11
65329;BME280;51941;52.210;5.158;2022-07-29T12:02:43;101671.44;;;23.33;45.20
65329;BME280;51941;52.210;5.158;2022-07-29T12:05:32;101428.59;;;21.88;45.20
65329;BME280;51941;52.210;5.158;2022-07-29T12:08:22;101654.81;;;23.40;44.99
65329;BME280;51941;52.210;5.158;2022-07-29T12:11:20;101303.22;;;21.39;44.70
65329;BME280;51941;52.210;5.158;2022-07-29T12:13:51;101475.16;;;22.50;44.67
65329;BME280;51941;52.210;5.158;2022-07-29T12:16:23;101531.31;;;22.80;44.36
65329;BME280;51941;52.210;5.158;2022-07-29T12:24:50;101531.63;;;22.79;44.86
65329;BME280;51941;52.210;5.158;2022-07-29T12:27:18;101452.72;;;22.17;44.77
65329;BME280;51941;52.210;5.158;2022-07-29T12:29:45;101298.84;;;21.25;45.04
65329;BME280;51941;52.210;5.158;2022-07-29T12:32:22;101327.16;;;21.41;44.94
65329;BME280;51941;52.210;5.158;2022-07-29T12:34:57;101277.34;;;21.01;44.88
65329;BME280;51941;52.210;5.158;2022-07-29T12:45:53;101636.75;;;23.54;44.47
65329;BME280;51941;52.210;5.158;2022-07-29T12:48:35;101495.53;;;22.75;44.37
65329;BME280;51941;52.210;5.158;2022-07-29T13:21:20;101567.97;;;23.87;42.85
65329;BME280;51941;52.210;5.158;2022-07-29T13:24:08;101322.53;;;22.30;43.06
65329;BME280;51941;52.210;5.158;2022-07-29T16:43:31;101315.63;;;21.73;43.93
65329;BME280;51941;52.210;5.158;2022-07-29T16:46:14;101305.75;;;21.49;43.96
65329;BME280;51941;52.210;5.158;2022-07-29T16:48:48;101363.72;;;22.03;43.84
65329;BME280;51941;52.210;5.158;2022-07-29T16:51:31;101264.63;;;21.44;44.42
65329;BME280;51941;52.210;5.158;2022-07-29T16:54:06;101289.78;;;21.72;44.32
65329;BME280;51941;52.210;5.158;2022-07-29T16:56:41;101298.00;;;21.62;44.31
65329;BME280;51941;52.210;5.158;2022-07-29T17:05:21;101301.59;;;21.57;44.75
65329;BME280;51941;52.210;5.158;2022-07-29T17:07:51;101654.53;;;24.01;44.23
65329;BME280;51941;52.210;5.158;2022-07-29T17:10:24;101293.28;;;21.53;44.60
65329;BME280;51941;52.210;5.158;2022-07-29T17:12:58;101317.38;;;21.64;44.78
65329;BME280;51941;52.210;5.158;2022-07-29T17:18:45;101493.47;;;22.67;45.11
65329;BME280;51941;52.210;5.158;2022-07-29T18:09:44;101610.00;;;22.31;49.38
65329;BME280;51941;52.210;5.158;2022-07-29T18:12:12;101490.91;;;21.63;48.78
65329;BME280;51941;52.210;5.158;2022-07-29T18:14:44;101306.59;;;20.36;48.98
65329;BME280;51941;52.210;5.158;2022-07-29T18:17:27;101326.06;;;20.52;49.29
65329;BME280;51941;52.210;5.158;2022-07-29T18:22:36;101311.47;;;20.34;49.57
65329;BME280;51941;52.210;5.158;2022-07-29T18:25:05;101319.06;;;20.27;50.00
65329;BME280;51941;52.210;5.158;2022-07-29T18:27:33;101363.56;;;20.38;50.18
65329;BME280;51941;52.210;5.158;2022-07-29T18:30:00;101354.56;;;20.24;50.52
65329;BME280;51941;52.210;5.158;2022-07-29T18:32:29;101428.53;;;20.50;51.01
65329;BME280;51941;52.210;5.158;2022-07-29T18:34:56;101353.94;;;19.98;51.51
65329;BME280;51941;52.210;5.158;2022-07-29T18:37:27;101563.84;;;21.19;52.10
65329;BME280;51941;52.210;5.158;2022-07-29T18:39:56;101553.06;;;21.19;51.86
65329;BME280;51941;52.210;5.158;2022-07-29T18:42:24;101682.94;;;21.97;52.26
65329;BME280;51941;52.210;5.158;2022-07-29T18:44:54;101300.88;;;19.41;52.47
65329;BME280;51941;52.210;5.158;2022-07-29T18:47:30;101676.66;;;21.83;52.71
65329;BME280;51941;52.210;5.158;2022-07-29T18:49:58;101613.53;;;21.31;52.34
65329;BME280;51941;52.210;5.158;2022-07-29T18:52:26;101620.09;;;21.20;53.01
65329;BME280;51941;52.210;5.158;2022-07-29T18:54:58;101349.25;;;19.36;53.61
65329;BME280;51941;52.210;5.158;2022-07-29T18:57:29;101307.75;;;19.13;53.54
65329;BME280;51941;52.210;5.158;2022-07-29T18:59:57;101420.44;;;19.77;54.04
65329;BME280;51941;52.210;5.158;2022-07-29T19:02:25;101342.31;;;19.19;53.96
65329;BME280;51941;52.210;5.158;2022-07-29T19:04:52;101334.28;;;19.14;53.83
65329;BME280;51941;52.210;5.158;2022-07-29T19:07:21;101693.19;;;21.42;54.21
65329;BME280;51941;52.210;5.158;2022-07-29T19:09:51;101494.16;;;20.10;54.17
65329;BME280;51941;52.210;5.158;2022-07-29T19:12:19;101567.31;;;20.51;54.31
65329;BME280;51941;52.210;5.158;2022-07-29T19:14:48;101567.31;;;20.51;54.13
65329;BME280;51941;52.210;5.158;2022-07-29T19:17:16;101327.94;;;18.95;54.64
65329;BME280;51941;52.210;5.158;2022-07-29T19:19:43;101310.84;;;18.71;55.55
65329;BME280;51941;52.210;5.158;2022-07-29T19:22:10;101705.97;;;21.22;55.38
65329;BME280;51941;52.210;5.158;2022-07-29T19:24:38;101686.19;;;21.02;55.88
65329;BME280;51941;52.210;5.158;2022-07-29T19:27:08;101348.38;;;18.76;57.29
65329;BME280;51941;52.210;5.158;2022-07-29T19:29:35;101295.38;;;18.32;57.27
65329;BME280;51941;52.210;5.158;2022-07-29T19:32:04;101489.31;;;19.58;57.21
65329;BME280;51941;52.210;5.158;2022-07-29T19:34:31;101587.13;;;20.11;58.30
65329;BME280;51941;52.210;5.158;2022-07-29T19:36:59;101700.59;;;20.72;59.27
65329;BME280;51941;52.210;5.158;2022-07-29T19:39:26;101729.09;;;20.78;59.55
65329;BME280;51941;52.210;5.158;2022-07-29T19:41:53;101762.75;;;20.76;59.93
65329;BME280;51941;52.210;5.158;2022-07-29T19:44:21;101332.91;;;18.17;60.17
65329;BME280;51941;52.210;5.158;2022-07-29T19:46:48;101384.59;;;18.38;61.44
65329;BME280;51941;52.210;5.158;2022-07-29T19:49:16;101387.81;;;18.30;61.49
65329;BME280;51941;52.210;5.158;2022-07-29T19:51:44;101382.19;;;18.21;61.96
65329;BME280;51941;52.210;5.158;2022-07-29T19:54:11;101490.78;;;18.79;62.29
65329;BME280;51941;52.210;5.158;2022-07-29T19:56:40;101327.78;;;17.75;63.07
65329;BME280;51941;52.210;5.158;2022-07-29T19:59:08;101528.06;;;18.96;62.96
65329;BME280;51941;52.210;5.158;2022-07-29T20:01:35;101758.06;;;20.32;63.04
65329;BME280;51941;52.210;5.158;2022-07-29T20:04:03;101404.41;;;17.86;63.23
65329;BME280;51941;52.210;5.158;2022-07-29T20:06:32;101545.22;;;18.75;64.12
65329;BME280;51941;52.210;5.158;2022-07-29T20:08:59;101441.38;;;18.09;63.95